地図

経路データ

SID SEASON NUMBER BASIN SUBBASIN NAME ISO_TIME NATURE LAT LON WMO_WIND WMO_PRES WMO_AGENCY TRACK_TYPE DIST2LAND LANDFALL IFLAG USA_AGENCY USA_ATCF_ID USA_LAT USA_LON USA_RECORD USA_STATUS USA_WIND USA_PRES USA_SSHS USA_R34_NE USA_R34_SE USA_R34_SW USA_R34_NW USA_R50_NE USA_R50_SE USA_R50_SW USA_R50_NW USA_R64_NE USA_R64_SE USA_R64_SW USA_R64_NW USA_POCI USA_ROCI USA_RMW USA_EYE TOKYO_LAT TOKYO_LON TOKYO_GRADE TOKYO_WIND TOKYO_PRES TOKYO_R50_DIR TOKYO_R50_LONG TOKYO_R50_SHORT TOKYO_R30_DIR TOKYO_R30_LONG TOKYO_R30_SHORT TOKYO_LAND CMA_LAT CMA_LON CMA_CAT CMA_WIND CMA_PRES HKO_LAT HKO_LON HKO_CAT HKO_WIND HKO_PRES NEWDELHI_LAT NEWDELHI_LON NEWDELHI_GRADE NEWDELHI_WIND NEWDELHI_PRES NEWDELHI_CI NEWDELHI_DP NEWDELHI_POCI REUNION_LAT REUNION_LON REUNION_TYPE REUNION_WIND REUNION_PRES REUNION_TNUM REUNION_CI REUNION_RMW REUNION_R34_NE REUNION_R34_SE REUNION_R34_SW REUNION_R34_NW REUNION_R50_NE REUNION_R50_SE REUNION_R50_SW REUNION_R50_NW REUNION_R64_NE REUNION_R64_SE REUNION_R64_SW REUNION_R64_NW BOM_LAT BOM_LON BOM_TYPE BOM_WIND BOM_PRES BOM_TNUM BOM_CI BOM_RMW BOM_R34_NE BOM_R34_SE BOM_R34_SW BOM_R34_NW BOM_R50_NE BOM_R50_SE BOM_R50_SW BOM_R50_NW BOM_R64_NE BOM_R64_SE BOM_R64_SW BOM_R64_NW BOM_ROCI BOM_POCI BOM_EYE BOM_POS_METHOD BOM_PRES_METHOD NADI_LAT NADI_LON NADI_CAT NADI_WIND NADI_PRES WELLINGTON_LAT WELLINGTON_LON WELLINGTON_WIND WELLINGTON_PRES DS824_LAT DS824_LON DS824_STAGE DS824_WIND DS824_PRES TD9636_LAT TD9636_LON TD9636_STAGE TD9636_WIND TD9636_PRES TD9635_LAT TD9635_LON TD9635_WIND TD9635_PRES TD9635_ROCI NEUMANN_LAT NEUMANN_LON NEUMANN_CLASS NEUMANN_WIND NEUMANN_PRES MLC_LAT MLC_LON MLC_CLASS MLC_WIND MLC_PRES USA_GUST BOM_GUST BOM_GUST_PER REUNION_GUST REUNION_GUST_PER USA_SEAHGT USA_SEARAD_NE USA_SEARAD_SE USA_SEARAD_SW USA_SEARAD_NW STORM_SPEED STORM_DIR
1886158N18285 1886 11 NA CS NOT_NAMED 1886-06-07 00:00:00 TS 17.5000 -75.5000 main 86 77 _____________O -1 17.5000 -75.5000 TS 35 3 247
1886158N18285 1886 11 NA CS NOT_NAMED 1886-06-07 03:00:00 TS 17.4375 -75.6625 main 77 70 _____________P -1 17.4375 -75.6625 TS 35 3 251
1886158N18285 1886 11 NA CS NOT_NAMED 1886-06-07 06:00:00 TS 17.4000 -75.8000 main 70 64 _____________O -1 17.4000 -75.8000 TS 35 2 261
1886158N18285 1886 11 NA CS NOT_NAMED 1886-06-07 09:00:00 TS 17.4000 -75.9000 main 64 59 _____________P -1 17.4000 -75.9000 TS 35 2 270
1886158N18285 1886 11 NA CS NOT_NAMED 1886-06-07 12:00:00 TS 17.4000 -76.0000 main 59 56 _____________O -1 17.4000 -76.0000 TS 35 2 258
1886158N18285 1886 11 NA CS NOT_NAMED 1886-06-07 15:00:00 TS 17.3500 -76.1500 main 55 55 _____________P -1 17.3500 -76.1500 TS 35 3 251
1886158N18285 1886 11 NA CS NOT_NAMED 1886-06-07 18:00:00 TS 17.3000 -76.3000 main 67 67 _____________O -1 17.3000 -76.3000 TS 35 2 256
1886158N18285 1886 11 NA CS NOT_NAMED 1886-06-07 21:00:00 TS 17.2924 -76.3850 main 67 67 _____________P -1 17.2924 -76.3850 TS 35 2 270
1886158N18285 1886 11 NA CS NOT_NAMED 1886-06-08 00:00:00 TS 17.3000 -76.5000 main 67 64 _____________O -1 17.3000 -76.5000 TS 35 3 271
1886158N18285 1886 11 NA CS NOT_NAMED 1886-06-08 03:00:00 TS 17.3000 -76.7275 main 64 49 _____________P -1 17.3000 -76.7275 TS 35 5 270
1886158N18285 1886 11 NA CS NOT_NAMED 1886-06-08 06:00:00 TS 17.3000 -77.0000 main 49 44 _____________O -1 17.3000 -77.0000 TS 35 5 269
1886158N18285 1886 11 NA CS NOT_NAMED 1886-06-08 09:00:00 TS 17.2923 -77.2201 main 44 44 _____________P -1 17.2923 -77.2201 TS 35 5 270
1886158N18285 1886 11 NA CS NOT_NAMED 1886-06-08 12:00:00 TS 17.3000 -77.5000 main 54 54 _____________O -1 17.3000 -77.5000 TS 35 7 275
1886158N18285 1886 11 NA CS NOT_NAMED 1886-06-08 15:00:00 TS 17.3501 -77.9199 main 59 59 _____________P -1 17.3501 -77.9199 TS 37 9 277
1886158N18285 1886 11 NA CS NOT_NAMED 1886-06-08 18:00:00 TS 17.4000 -78.4000 main 89 89 _____________O -1 17.4000 -78.4000 TS 40 9 273
1886158N18285 1886 11 NA CS NOT_NAMED 1886-06-08 21:00:00 TS 17.3999 -78.8501 main 103 103 _____________P -1 17.3999 -78.8501 TS 42 9 270
1886158N18285 1886 11 NA CS NOT_NAMED 1886-06-09 00:00:00 TS 17.4000 -79.3000 main 130 130 _____________O -1 17.4000 -79.3000 TS 45 9 273
1886158N18285 1886 11 NA CS NOT_NAMED 1886-06-09 03:00:00 TS 17.4499 -79.7574 main 173 167 _____________P -1 17.4499 -79.7574 TS 45 9 277
1886158N18285 1886 11 NA CS NOT_NAMED 1886-06-09 06:00:00 TS 17.5000 -80.2000 main 206 206 _____________O -1 17.5000 -80.2000 TS 45 8 272
1886158N18285 1886 11 NA CS NOT_NAMED 1886-06-09 09:00:00 TS 17.4848 -80.6002 main 245 245 _____________P -1 17.4848 -80.6002 TS 45 8 270
1886158N18285 1886 11 NA CS NOT_NAMED 1886-06-09 12:00:00 TS 17.5000 -81.0000 main 286 286 _____________O -1 17.5000 -81.0000 TS 45 8 281
1886158N18285 1886 11 NA CS NOT_NAMED 1886-06-09 15:00:00 TS 17.6349 -81.4424 main 324 322 _____________P -1 17.6349 -81.4424 TS 45 9 289
1886158N18285 1886 11 NA CS NOT_NAMED 1886-06-09 18:00:00 TS 17.8000 -81.9000 main 322 312 _____________O -1 17.8000 -81.9000 TS 45 9 287
1886158N18285 1886 11 NA CS NOT_NAMED 1886-06-09 21:00:00 TS 17.8999 -82.3577 main 308 293 _____________P -1 17.8999 -82.3577 TS 45 9 283
1886158N18285 1886 11 NA CS NOT_NAMED 1886-06-10 00:00:00 TS 18.0000 -82.8000 main 293 282 _____________O -1 18.0000 -82.8000 TS 45 8 287
1886158N18285 1886 11 NA CS NOT_NAMED 1886-06-10 03:00:00 TS 18.1498 -83.2000 main 282 282 _____________P -1 18.1498 -83.2000 TS 45 8 292
1886158N18285 1886 11 NA CS NOT_NAMED 1886-06-10 06:00:00 TS 18.3000 -83.6000 main 289 284 _____________O -1 18.3000 -83.6000 TS 45 8 287
1886158N18285 1886 11 NA CS NOT_NAMED 1886-06-10 09:00:00 TS 18.3849 -84.0353 main 289 282 _____________P -1 18.3849 -84.0353 TS 45 9 283
1886158N18285 1886 11 NA CS NOT_NAMED 1886-06-10 12:00:00 TS 18.5000 -84.5000 main 291 267 _____________O -1 18.5000 -84.5000 TS 45 10 291
1886158N18285 1886 11 NA CS NOT_NAMED 1886-06-10 15:00:00 TS 18.7274 -84.9924 main 267 207 _____________P -1 18.7274 -84.9924 TS 45 11 298
1886158N18285 1886 11 NA CS NOT_NAMED 1886-06-10 18:00:00 TS 19.0000 -85.5000 main 207 150 _____________O -1 19.0000 -85.5000 TS 45 11 299
1886158N18285 1886 11 NA CS NOT_NAMED 1886-06-10 21:00:00 TS 19.2499 -86.0002 main 150 94 _____________P -1 19.2499 -86.0002 TS 45 11 298
1886158N18285 1886 11 NA CS NOT_NAMED 1886-06-11 00:00:00 TS 19.5000 -86.5000 main 94 47 _____________O -1 19.5000 -86.5000 TS 45 11 298
1886158N18285 1886 11 NA CS NOT_NAMED 1886-06-11 03:00:00 TS 19.7499 -87.0002 main 47 0 _____________P -1 19.7499 -87.0002 TS 47 11 298
1886158N18285 1886 11 NA CS NOT_NAMED 1886-06-11 06:00:00 TS 20.0000 -87.5000 main 0 0 _____________O -1 20.0000 -87.5000 TS 50 11 298
1886158N18285 1886 11 NA NA NOT_NAMED 1886-06-11 09:00:00 TS 20.2424 -88.0002 main 0 0 _____________P -1 20.2424 -88.0002 TS 50 11 298
1886158N18285 1886 11 NA NA NOT_NAMED 1886-06-11 12:00:00 TS 20.5000 -88.5000 main 0 0 _____________O -1 20.5000 -88.5000 TS 50 11 300
1886158N18285 1886 11 NA NA NOT_NAMED 1886-06-11 15:00:00 TS 20.7924 -89.0076 main 0 0 _____________P -1 20.7924 -89.0076 TS 52 11 303
1886158N18285 1886 11 NA NA NOT_NAMED 1886-06-11 18:00:00 TS 21.1000 -89.5000 main 0 0 _____________O -1 21.1000 -89.5000 TS 55 11 304
1886158N18285 1886 11 NA GM NOT_NAMED 1886-06-11 21:00:00 TS 21.3998 -89.9577 main 24 24 _____________P -1 21.3998 -89.9577 TS 57 10 306
1886158N18285 1886 11 NA GM NOT_NAMED 1886-06-12 00:00:00 TS 21.7000 -90.4000 main 67 67 _____________O -1 21.7000 -90.4000 TS 60 10 306
1886158N18285 1886 11 NA GM NOT_NAMED 1886-06-12 03:00:00 TS 22.0073 -90.8427 main 113 113 _____________P -1 22.0073 -90.8427 TS 60 10 306
1886158N18285 1886 11 NA GM NOT_NAMED 1886-06-12 06:00:00 TS 22.3000 -91.3000 main 169 169 _____________O -1 22.3000 -91.3000 TS 60 11 302
1886158N18285 1886 11 NA GM NOT_NAMED 1886-06-12 09:00:00 TS 22.5633 -91.8236 main 228 228 _____________P -1 22.5633 -91.8236 TS 62 11 298
1886158N18285 1886 11 NA GM NOT_NAMED 1886-06-12 12:00:00 TS 22.8000 -92.3000 main 280 280 _____________O -1 22.8000 -92.3000 HU 65 8 301
1886158N18285 1886 11 NA GM NOT_NAMED 1886-06-12 15:00:00 TS 22.9804 -92.5747 main 318 318 _____________P -1 22.9804 -92.5747 HU 66 5 311
1886158N18285 1886 11 NA GM NOT_NAMED 1886-06-12 18:00:00 TS 23.1427 -92.7268 main 333 333 _____________P -1 23.1427 -92.7268 HU 67 4 325
1886158N18285 1886 11 NA GM NOT_NAMED 1886-06-12 21:00:00 TS 23.3337 -92.8404 main 355 355 _____________P -1 23.3337 -92.8404 HU 68 5 331
1886158N18285 1886 11 NA GM NOT_NAMED 1886-06-13 00:00:00 TS 23.6000 -93.0000 main 393 393 _____________O -1 23.6000 -93.0000 HU 70 8 328
1886158N18285 1886 11 NA GM NOT_NAMED 1886-06-13 03:00:00 TS 23.9805 -93.2877 main 432 349 _____________P -1 23.9805 -93.2877 HU 70 13 289
1886158N18285 1886 11 NA GM NOT_NAMED 1886-06-13 06:00:00 TS 24.0000 -94.3000 35 hurdat_atl main 340 275 O____________O hurdat_atl AL011886 23.2000 -95.7000 TS 35 0 24.4000 -93.6000 HU 70 15 286
1886158N18285 1886 11 NA GM NOT_NAMED 1886-06-13 09:00:00 TS 24.3800 -94.8513 main 266 215 P____________P AL011886 23.9601 -95.8023 TS 37 0 24.7999 -93.9002 HU 70 12 317
1886158N18285 1886 11 NA GM NOT_NAMED 1886-06-13 12:00:00 TS 24.9000 -95.2200 40 hurdat_atl main 215 171 O____________O hurdat_atl AL011886 24.7000 -95.9000 TS 40 0 25.2000 -94.2000 HU 70 12 332
1886158N18285 1886 11 NA GM NOT_NAMED 1886-06-13 15:00:00 TS 25.4658 -95.4866 main 169 149 P____________P AL011886 25.3950 -95.9799 TS 42 0 25.6074 -94.5001 HU 70 12 343
1886158N18285 1886 11 NA GM NOT_NAMED 1886-06-13 18:00:00 TS 26.0000 -95.6000 45 hurdat_atl main 149 143 O____________O hurdat_atl AL011886 26.0000 -96.0000 TS 45 0 26.0000 -94.8000 HU 70 10 350
1886158N18285 1886 11 NA GM NOT_NAMED 1886-06-13 21:00:00 TS 26.4316 -95.6733 main 146 146 P____________P AL011886 26.4724 -95.9449 TS 50 0 26.3501 -95.1300 HU 70 8 356
1886158N18285 1886 11 NA GM NOT_NAMED 1886-06-14 00:00:00 TS 26.8333 -95.6667 55 hurdat_atl main 165 145 O____________O hurdat_atl AL011886 26.9000 -95.8000 TS 55 0 26.7000 -95.4000 HU 70 9 6
1886158N18285 1886 11 NA GM NOT_NAMED 1886-06-14 03:00:00 TS 27.2950 -95.5783 main 145 116 P____________P AL011886 27.3925 -95.5800 TS 60 0 27.0999 -95.5749 HU 70 10 14
1886158N18285 1886 11 NA GM NOT_NAMED 1886-06-14 06:00:00 TS 27.7667 -95.4000 65 hurdat_atl main 106 80 O____________O hurdat_atl AL011886 27.9000 -95.3000 HU 65 1 27.5000 -95.6000 HU 70 10 21
1886158N18285 1886 11 NA GM NOT_NAMED 1886-06-14 09:00:00 TS 28.2134 -95.1818 main 80 53 P____________P AL011886 28.3953 -95.0204 HU 70 1 27.8496 -95.5046 HU 72 10 28
1886158N18285 1886 11 NA GM NOT_NAMED 1886-06-14 12:00:00 TS 28.6667 -94.8667 75 hurdat_atl main 44 44 O____________O hurdat_atl AL011886 28.9000 -94.7000 HU 75 1 28.2000 -95.2000 HU 75 12 36
1886158N18285 1886 11 NA GM NOT_NAMED 1886-06-14 15:00:00 TS 29.1439 -94.4145 main 48 34 P____________P AL011886 29.4342 -94.3177 HU 82 1 28.5634 -94.6081 HU 80 12 40
1886158N18285 1886 11 NA GM NOT_NAMED 1886-06-14 16:00:00 TS 29.2990 -94.2629 85 hurdat_atl main 34 11 O____________P hurdat_atl AL011886 29.6000 -94.2000 L HU 85 2 28.6971 -94.3886 HU 81 12 38
1886158N18285 1886 11 NA GM NOT_NAMED 1886-06-14 18:00:00 TS 29.6000 -94.0000 85 hurdat_atl main 11 0 O____________O hurdat_atl AL011886 29.9000 -94.0000 HU 85 2 29.0000 -94.0000 HU 85 11 37
1886158N18285 1886 11 NA NA NOT_NAMED 1886-06-14 21:00:00 TS 30.0516 -93.6053 main 0 0 P____________P AL011886 30.2926 -93.5596 HU 72 1 29.5695 -93.6967 HU 72 11 40
1886158N18285 1886 11 NA NA NOT_NAMED 1886-06-15 00:00:00 TS 30.4667 -93.1667 60 hurdat_atl main 0 0 O____________O hurdat_atl AL011886 30.6000 -93.0000 TS 60 0 30.2000 -93.5000 TS 60 11 45
1886158N18285 1886 11 NA NA NOT_NAMED 1886-06-15 03:00:00 TS 30.8273 -92.7031 main 0 0 P____________P AL011886 30.8372 -92.4297 TS 52 0 30.8074 -93.2498 TS 52 11 54
1886158N18285 1886 11 NA NA NOT_NAMED 1886-06-15 06:00:00 TS 31.1091 -92.1273 45 hurdat_atl main 0 0 O____________O hurdat_atl AL011886 31.0000 -91.8000 TS 45 0 31.4000 -93.0000 TS 45 12 67
1886158N18285 1886 11 NA NA NOT_NAMED 1886-06-15 09:00:00 TS 31.2959 -91.4421 main 0 0 P____________P AL011886 31.1298 -91.1149 TS 40 0 31.9601 -92.7506 TS 40 13 77
1886158N18285 1886 11 NA NA NOT_NAMED 1886-06-15 12:00:00 TS 31.3857 -90.7000 35 hurdat_atl main 0 0 O____________O hurdat_atl AL011886 31.2000 -90.4000 TS 35 0 32.5000 -92.5000 TS 35 15 93
1886158N18285 1886 11 NA NA NOT_NAMED 1886-06-15 15:00:00 TS 31.2156 -89.6949 main 0 0 P_____________ AL011886 31.2156 -89.6949 TS 32 -1 TS 15 97
1886158N18285 1886 11 NA NA NOT_NAMED 1886-06-15 18:00:00 TS 31.2000 -89.0000 30 hurdat_atl main 0 O_____________ hurdat_atl AL011886 31.2000 -89.0000 TD 30 -1 12 92

IBTrACS Databaseについて

本データベースは、米国NOAAが公開する1842年以降の世界の熱帯低気圧のベストトラックデータアーカイブInternational Best Track Archive for Climate Stewardship (IBTrACS)を、ウェブで閲覧しやすい形式に変換したものです。

最終更新日:2021-12-08